sensor_id;sensor_type;location;lat;lon;timestamp;P1;P2;P0
76330;PMS7003;65148;51.912;15.570;2023-07-31T00:00:45;3;3;2
76330;PMS7003;65148;51.912;15.570;2023-07-31T00:15:46;3;3;2
76330;PMS7003;65148;51.912;15.570;2023-07-31T00:31:05;2;2;1
76330;PMS7003;65148;51.912;15.570;2023-07-31T00:46:06;3;3;3
76330;PMS7003;65148;51.912;15.570;2023-07-31T01:01:07;4;4;3
76330;PMS7003;65148;51.912;15.570;2023-07-31T01:16:08;2;2;2
76330;PMS7003;65148;51.912;15.570;2023-07-31T01:31:27;7;5;3
76330;PMS7003;65148;51.912;15.570;2023-07-31T01:46:30;2;2;2
76330;PMS7003;65148;51.912;15.570;2023-07-31T02:01:31;3;3;3
76330;PMS7003;65148;51.912;15.570;2023-07-31T02:16:32;3;3;2
76330;PMS7003;65148;51.912;15.570;2023-07-31T02:31:49;5;5;4
76330;PMS7003;65148;51.912;15.570;2023-07-31T02:46:50;4;4;3
76330;PMS7003;65148;51.912;15.570;2023-07-31T03:01:51;5;5;4
76330;PMS7003;65148;51.912;15.570;2023-07-31T03:16:53;10;7;6
76330;PMS7003;65148;51.912;15.570;2023-07-31T03:32:13;6;6;5
76330;PMS7003;65148;51.912;15.570;2023-07-31T03:47:14;7;6;5
76330;PMS7003;65148;51.912;15.570;2023-07-31T04:02:15;7;6;5
76330;PMS7003;65148;51.912;15.570;2023-07-31T04:17:18;6;6;5
76330;PMS7003;65148;51.912;15.570;2023-07-31T04:32:36;6;6;5
76330;PMS7003;65148;51.912;15.570;2023-07-31T04:47:37;4;4;4
76330;PMS7003;65148;51.912;15.570;2023-07-31T05:02:38;5;5;4
76330;PMS7003;65148;51.912;15.570;2023-07-31T05:17:39;5;5;4
76330;PMS7003;65148;51.912;15.570;2023-07-31T05:32:59;4;4;3
76330;PMS7003;65148;51.912;15.570;2023-07-31T05:48:00;3;3;2
76330;PMS7003;65148;51.912;15.570;2023-07-31T06:03:01;3;2;2
76330;PMS7003;65148;51.912;15.570;2023-07-31T06:18:02;1;1;1
76330;PMS7003;65148;51.912;15.570;2023-07-31T06:33:22;2;2;2
76330;PMS7003;65148;51.912;15.570;2023-07-31T06:48:22;0;0;0
76330;PMS7003;65148;51.912;15.570;2023-07-31T07:03:24;1;0;0
76330;PMS7003;65148;51.912;15.570;2023-07-31T07:18:25;1;1;1
76330;PMS7003;65148;51.912;15.570;2023-07-31T07:33:44;1;1;0
76330;PMS7003;65148;51.912;15.570;2023-07-31T07:48:45;1;1;1
76330;PMS7003;65148;51.912;15.570;2023-07-31T08:03:49;2;2;1
76330;PMS7003;65148;51.912;15.570;2023-07-31T08:18:50;1;1;1
76330;PMS7003;65148;51.912;15.570;2023-07-31T08:34:06;2;2;2
76330;PMS7003;65148;51.912;15.570;2023-07-31T08:49:07;2;1;1
76330;PMS7003;65148;51.912;15.570;2023-07-31T09:04:10;3;3;3
76330;PMS7003;65148;51.912;15.570;2023-07-31T09:19:13;3;3;2
76330;PMS7003;65148;51.912;15.570;2023-07-31T09:49:45;3;3;3
76330;PMS7003;65148;51.912;15.570;2023-07-31T10:04:46;3;3;2
76330;PMS7003;65148;51.912;15.570;2023-07-31T10:20:10;3;3;2
76330;PMS7003;65148;51.912;15.570;2023-07-31T10:35:11;2;2;2
76330;PMS7003;65148;51.912;15.570;2023-07-31T10:50:17;3;2;2
76330;PMS7003;65148;51.912;15.570;2023-07-31T11:21:03;0;0;0
76330;PMS7003;65148;51.912;15.570;2023-07-31T11:36:04;1;0;0
76330;PMS7003;65148;51.912;15.570;2023-07-31T11:51:27;3;2;1
76330;PMS7003;65148;51.912;15.570;2023-07-31T12:06:36;1;1;1
76330;PMS7003;65148;51.912;15.570;2023-07-31T12:21:37;0;0;0
76330;PMS7003;65148;51.912;15.570;2023-07-31T12:37:05;1;1;1
76330;PMS7003;65148;51.912;15.570;2023-07-31T12:52:06;0;0;0
76330;PMS7003;65148;51.912;15.570;2023-07-31T13:07:07;1;0;0
76330;PMS7003;65148;51.912;15.570;2023-07-31T13:26:51;0;0;0
76330;PMS7003;65148;51.912;15.570;2023-07-31T13:41:52;1;1;1
76330;PMS7003;65148;51.912;15.570;2023-07-31T13:56:53;1;1;1
76330;PMS7003;65148;51.912;15.570;2023-07-31T14:12:12;1;1;1
76330;PMS7003;65148;51.912;15.570;2023-07-31T14:27:13;2;2;2
76330;PMS7003;65148;51.912;15.570;2023-07-31T14:42:14;0;0;0
76330;PMS7003;65148;51.912;15.570;2023-07-31T14:57:18;2;2;2
76330;PMS7003;65148;51.912;15.570;2023-07-31T15:12:33;3;3;2
76330;PMS7003;65148;51.912;15.570;2023-07-31T15:27:34;3;3;2
76330;PMS7003;65148;51.912;15.570;2023-07-31T15:42:35;3;3;2
76330;PMS7003;65148;51.912;15.570;2023-07-31T15:57:41;2;2;2
76330;PMS7003;65148;51.912;15.570;2023-07-31T16:12:55;4;2;2
76330;PMS7003;65148;51.912;15.570;2023-07-31T16:27:56;3;3;2
76330;PMS7003;65148;51.912;15.570;2023-07-31T16:42:56;2;2;2
76330;PMS7003;65148;51.912;15.570;2023-07-31T16:57:57;2;2;1
76330;PMS7003;65148;51.912;15.570;2023-07-31T17:13:16;3;2;2
76330;PMS7003;65148;51.912;15.570;2023-07-31T17:28:17;3;3;2
76330;PMS7003;65148;51.912;15.570;2023-07-31T17:43:18;3;3;2
76330;PMS7003;65148;51.912;15.570;2023-07-31T17:58:19;2;2;2
76330;PMS7003;65148;51.912;15.570;2023-07-31T18:13:38;7;6;5
76330;PMS7003;65148;51.912;15.570;2023-07-31T18:28:38;4;4;3
76330;PMS7003;65148;51.912;15.570;2023-07-31T18:43:39;5;5;5
76330;PMS7003;65148;51.912;15.570;2023-07-31T18:58:40;3;3;3
76330;PMS7003;65148;51.912;15.570;2023-07-31T19:13:59;3;3;3
76330;PMS7003;65148;51.912;15.570;2023-07-31T19:29:00;4;4;3
76330;PMS7003;65148;51.912;15.570;2023-07-31T19:44:01;3;3;3
76330;PMS7003;65148;51.912;15.570;2023-07-31T19:59:02;2;2;2
76330;PMS7003;65148;51.912;15.570;2023-07-31T20:14:20;6;4;3
76330;PMS7003;65148;51.912;15.570;2023-07-31T20:29:21;4;4;3
76330;PMS7003;65148;51.912;15.570;2023-07-31T20:44:22;4;3;3
76330;PMS7003;65148;51.912;15.570;2023-07-31T20:59:23;9;6;5
76330;PMS7003;65148;51.912;15.570;2023-07-31T21:14:42;6;6;5
76330;PMS7003;65148;51.912;15.570;2023-07-31T21:29:43;4;4;3
76330;PMS7003;65148;51.912;15.570;2023-07-31T21:44:45;4;4;3
76330;PMS7003;65148;51.912;15.570;2023-07-31T21:59:46;3;3;2
76330;PMS7003;65148;51.912;15.570;2023-07-31T22:15:04;4;4;3
76330;PMS7003;65148;51.912;15.570;2023-07-31T22:30:06;7;7;5
76330;PMS7003;65148;51.912;15.570;2023-07-31T22:45:07;4;4;4
76330;PMS7003;65148;51.912;15.570;2023-07-31T23:00:10;4;4;4
76330;PMS7003;65148;51.912;15.570;2023-07-31T23:15:26;3;3;3
76330;PMS7003;65148;51.912;15.570;2023-07-31T23:30:27;4;4;3
76330;PMS7003;65148;51.912;15.570;2023-07-31T23:45:28;4;4;3
